Orto / Ocaso: 07:24 / 17:33 UTC (Datos para LEAX 24-01-2019)

[fuente: ADDS]

METAR:


LEMG 240430Z 30013KT 9999 SCT040 15/08 Q1011 NOSIG =
TAF LEMG 232300Z 2400/2424 30012KT 9999 SCT040 TX18/2415Z TN11/2408Z PROB40 TEMPO 2400/2412 30015G25KT LEGR 240430Z AUTO 18004KT 160V240 9999 FEW013/// BKN019/// OVC024/// 09/07 Q1011 =
TAF LEGR 240200Z 2403/2503 31009KT 9999 SCT030 TX14/2415Z TN05/2408Z PROB40 TEMPO 2403/2408 3000 BR BKN009 LEZL 240430Z 23010KT 9999 FEW040 11/09 Q1013 NOSIG =
TAF LEZL 240200Z 2403/2503 23005KT CAVOK TX19/2416Z TN08/2408Z LEAM 240430Z 27005KT CAVOK 13/06 Q1005 =
TAF LEAM 240200Z 2403/2503 30009KT 9999 SCT030 TX18/2412Z TN10/2407Z BECMG 2409/2411 23010KT LEBA 240430Z AUTO 21008KT 9999 NCD 09/07 Q1012 =
TAF COR LEBA 240205Z 2403/2412 24005KT 9999 FEW040 PROB40 TEMPO 2403/2408 3000 BR BKN009 LEJR 240430Z 27008KT 240V320 9999 SCT030 12/10 Q1014 =
TAF LEJR 232300Z 2400/2424 34010KT 9999 SCT020 TX18/2415Z TN10/2408Z BECMG 2416/2418 VRB03KT GEML 240430Z AUTO 29017G31KT 240V330 CAVOK 15/11 Q1010 =
TAF GEML 240200Z 2403/2503 29020G35KT 9999 SCT025 TX17/2414Z TN14/2407Z TEMPO 2403/2412 29025G40KT BECMG 2412/2416 27015G25KT LXGB 240350Z AUTO 27022KT 9999 // FEW024/// SCT032/// BKN039/// 14/10 Q1014 =

TAFOR:


TAF LEMG 232300Z 2400/2424 30012KT 9999 SCT040 TX18/2415Z TN11/2408Z PROB40 TEMPO 2400/2412 30015G25KT =
TAF LEGR 240200Z 2403/2503 31009KT 9999 SCT030 TX14/2415Z TN05/2408Z PROB40 TEMPO 2403/2408 3000 BR BKN009 =
TAF LEZL 240200Z 2403/2503 23005KT CAVOK TX19/2416Z TN08/2408Z =
TAF LEAM 240200Z 2403/2503 30009KT 9999 SCT030 TX18/2412Z TN10/2407Z BECMG 2409/2411 23010KT =
TAF COR LEBA 240205Z 2403/2412 24005KT 9999 FEW040 PROB40 TEMPO 2403/2408 3000 BR BKN009 =
TAF LEJR 232300Z 2400/2424 34010KT 9999 SCT020 TX18/2415Z TN10/2408Z BECMG 2416/2418 VRB03KT =
TAF GEML 240200Z 2403/2503 29020G35KT 9999 SCT025 TX17/2414Z TN14/2407Z TEMPO 2403/2412 29025G40KT BECMG 2412/2416 27015G25KT =

Recuerde que, aunque regularmente actualizada, la información meteorológica aquí presentada no debe ser utilizada para la planificación de vuelos. Si lo desea, puede consultar la información meteorológica adecuada, tanto de aeródromos como en ruta, por las vías oficialmente establecidas en la legislación -> AQUí